sensor_id;sensor_type;location;lat;lon;timestamp;P1;durP1;ratioP1;P2;durP2;ratioP2
73550;SDS011;61816;53.582;10.096;2022-08-01T00:02:15;35.33;;;25.65;;
73550;SDS011;61816;53.582;10.096;2022-08-01T00:04:40;38.72;;;28.67;;
73550;SDS011;61816;53.582;10.096;2022-08-01T00:07:05;33.30;;;23.65;;
73550;SDS011;61816;53.582;10.096;2022-08-01T00:09:31;32.05;;;24.83;;
73550;SDS011;61816;53.582;10.096;2022-08-01T00:11:56;32.70;;;24.08;;
73550;SDS011;61816;53.582;10.096;2022-08-01T00:14:22;30.70;;;22.83;;
73550;SDS011;61816;53.582;10.096;2022-08-01T00:16:48;32.25;;;22.88;;
73550;SDS011;61816;53.582;10.096;2022-08-01T00:19:13;31.35;;;23.60;;
73550;SDS011;61816;53.582;10.096;2022-08-01T00:21:38;30.60;;;21.17;;
73550;SDS011;61816;53.582;10.096;2022-08-01T00:24:04;31.30;;;24.13;;
73550;SDS011;61816;53.582;10.096;2022-08-01T00:26:29;29.33;;;20.08;;
73550;SDS011;61816;53.582;10.096;2022-08-01T00:28:55;24.00;;;19.60;;
73550;SDS011;61816;53.582;10.096;2022-08-01T00:31:20;26.67;;;20.38;;
73550;SDS011;61816;53.582;10.096;2022-08-01T00:33:45;30.90;;;23.60;;
73550;SDS011;61816;53.582;10.096;2022-08-01T00:36:11;30.30;;;22.35;;
73550;SDS011;61816;53.582;10.096;2022-08-01T00:38:36;34.95;;;21.98;;
73550;SDS011;61816;53.582;10.096;2022-08-01T00:41:02;37.30;;;24.35;;
73550;SDS011;61816;53.582;10.096;2022-08-01T00:43:27;37.53;;;24.08;;
73550;SDS011;61816;53.582;10.096;2022-08-01T00:45:53;31.02;;;22.27;;
73550;SDS011;61816;53.582;10.096;2022-08-01T00:48:18;34.70;;;23.50;;
73550;SDS011;61816;53.582;10.096;2022-08-01T00:50:44;36.28;;;24.55;;
73550;SDS011;61816;53.582;10.096;2022-08-01T00:53:09;35.20;;;22.80;;
73550;SDS011;61816;53.582;10.096;2022-08-01T00:55:35;34.83;;;25.02;;
73550;SDS011;61816;53.582;10.096;2022-08-01T00:58:00;37.58;;;25.23;;
73550;SDS011;61816;53.582;10.096;2022-08-01T01:00:26;37.65;;;24.55;;
73550;SDS011;61816;53.582;10.096;2022-08-01T01:02:51;32.83;;;22.77;;
73550;SDS011;61816;53.582;10.096;2022-08-01T01:05:17;33.38;;;22.27;;
73550;SDS011;61816;53.582;10.096;2022-08-01T01:10:31;35.78;;;23.58;;
73550;SDS011;61816;53.582;10.096;2022-08-01T01:13:48;32.08;;;22.02;;
73550;SDS011;61816;53.582;10.096;2022-08-01T01:16:14;29.40;;;18.77;;
73550;SDS011;61816;53.582;10.096;2022-08-01T01:18:43;31.05;;;17.92;;
73550;SDS011;61816;53.582;10.096;2022-08-01T01:29:17;27.83;;;17.52;;
73550;SDS011;61816;53.582;10.096;2022-08-01T01:31:48;32.05;;;18.38;;
73550;SDS011;61816;53.582;10.096;2022-08-01T01:34:17;27.40;;;17.60;;
73550;SDS011;61816;53.582;10.096;2022-08-01T01:36:44;29.92;;;19.27;;
73550;SDS011;61816;53.582;10.096;2022-08-01T01:39:13;37.83;;;20.20;;
73550;SDS011;61816;53.582;10.096;2022-08-01T01:41:40;27.98;;;20.95;;
73550;SDS011;61816;53.582;10.096;2022-08-01T01:44:07;32.78;;;19.45;;
73550;SDS011;61816;53.582;10.096;2022-08-01T01:46:34;32.17;;;21.80;;
73550;SDS011;61816;53.582;10.096;2022-08-01T01:49:01;29.63;;;20.00;;
73550;SDS011;61816;53.582;10.096;2022-08-01T01:51:27;31.58;;;19.27;;
73550;SDS011;61816;53.582;10.096;2022-08-01T01:53:55;27.30;;;18.00;;
73550;SDS011;61816;53.582;10.096;2022-08-01T01:56:21;37.05;;;19.95;;
73550;SDS011;61816;53.582;10.096;2022-08-01T01:58:55;35.10;;;21.63;;
73550;SDS011;61816;53.582;10.096;2022-08-01T02:01:23;42.97;;;23.23;;
73550;SDS011;61816;53.582;10.096;2022-08-01T02:03:51;38.03;;;23.38;;
73550;SDS011;61816;53.582;10.096;2022-08-01T02:06:18;38.58;;;23.67;;
73550;SDS011;61816;53.582;10.096;2022-08-01T02:08:45;43.53;;;24.77;;
73550;SDS011;61816;53.582;10.096;2022-08-01T02:11:12;41.92;;;24.75;;
73550;SDS011;61816;53.582;10.096;2022-08-01T02:13:46;37.88;;;20.95;;
73550;SDS011;61816;53.582;10.096;2022-08-01T02:16:28;32.03;;;19.60;;
73550;SDS011;61816;53.582;10.096;2022-08-01T02:18:56;39.05;;;21.23;;
73550;SDS011;61816;53.582;10.096;2022-08-01T02:21:25;39.38;;;23.40;;
73550;SDS011;61816;53.582;10.096;2022-08-01T02:23:55;32.35;;;19.67;;
73550;SDS011;61816;53.582;10.096;2022-08-01T02:26:28;37.38;;;21.90;;
73550;SDS011;61816;53.582;10.096;2022-08-01T02:28:55;32.40;;;19.55;;
73550;SDS011;61816;53.582;10.096;2022-08-01T02:31:24;36.22;;;19.95;;
73550;SDS011;61816;53.582;10.096;2022-08-01T02:33:53;31.00;;;19.45;;
73550;SDS011;61816;53.582;10.096;2022-08-01T02:36:24;35.53;;;20.40;;
73550;SDS011;61816;53.582;10.096;2022-08-01T02:38:52;32.03;;;18.55;;
73550;SDS011;61816;53.582;10.096;2022-08-01T02:41:19;35.47;;;17.15;;
73550;SDS011;61816;53.582;10.096;2022-08-01T02:43:47;25.90;;;17.08;;
73550;SDS011;61816;53.582;10.096;2022-08-01T02:46:21;29.05;;;15.57;;
73550;SDS011;61816;53.582;10.096;2022-08-01T02:48:51;38.03;;;18.80;;
73550;SDS011;61816;53.582;10.096;2022-08-01T02:51:21;31.65;;;18.98;;
73550;SDS011;61816;53.582;10.096;2022-08-01T02:53:48;33.70;;;16.00;;
73550;SDS011;61816;53.582;10.096;2022-08-01T02:56:17;31.13;;;17.10;;
73550;SDS011;61816;53.582;10.096;2022-08-01T02:58:45;49.58;;;16.40;;
73550;SDS011;61816;53.582;10.096;2022-08-01T03:01:13;24.30;;;15.85;;
73550;SDS011;61816;53.582;10.096;2022-08-01T03:03:41;29.27;;;15.98;;
73550;SDS011;61816;53.582;10.096;2022-08-01T03:06:06;31.45;;;16.05;;
73550;SDS011;61816;53.582;10.096;2022-08-01T03:08:33;29.30;;;15.00;;
73550;SDS011;61816;53.582;10.096;2022-08-01T03:11:01;21.63;;;13.63;;
73550;SDS011;61816;53.582;10.096;2022-08-01T03:13:28;26.08;;;13.95;;
73550;SDS011;61816;53.582;10.096;2022-08-01T03:15:55;23.92;;;13.98;;
73550;SDS011;61816;53.582;10.096;2022-08-01T03:18:22;22.77;;;13.20;;
73550;SDS011;61816;53.582;10.096;2022-08-01T03:20:49;21.17;;;14.38;;
73550;SDS011;61816;53.582;10.096;2022-08-01T03:23:17;27.92;;;15.05;;
73550;SDS011;61816;53.582;10.096;2022-08-01T03:25:45;25.38;;;13.35;;
73550;SDS011;61816;53.582;10.096;2022-08-01T03:28:13;21.23;;;15.43;;
73550;SDS011;61816;53.582;10.096;2022-08-01T03:30:41;18.05;;;14.35;;
73550;SDS011;61816;53.582;10.096;2022-08-01T03:33:08;28.02;;;15.48;;
73550;SDS011;61816;53.582;10.096;2022-08-01T03:35:35;23.77;;;14.88;;
73550;SDS011;61816;53.582;10.096;2022-08-01T03:38:04;23.17;;;13.30;;
73550;SDS011;61816;53.582;10.096;2022-08-01T03:40:35;26.42;;;15.57;;
73550;SDS011;61816;53.582;10.096;2022-08-01T03:45:40;22.65;;;14.85;;
73550;SDS011;61816;53.582;10.096;2022-08-01T03:48:13;22.60;;;14.18;;
73550;SDS011;61816;53.582;10.096;2022-08-01T03:50:46;21.52;;;14.13;;
73550;SDS011;61816;53.582;10.096;2022-08-01T03:53:13;19.25;;;13.57;;
73550;SDS011;61816;53.582;10.096;2022-08-01T03:55:41;19.30;;;13.30;;
73550;SDS011;61816;53.582;10.096;2022-08-01T03:58:08;19.00;;;12.00;;
73550;SDS011;61816;53.582;10.096;2022-08-01T04:00:38;15.63;;;10.55;;
73550;SDS011;61816;53.582;10.096;2022-08-01T04:03:05;11.27;;;9.38;;
73550;SDS011;61816;53.582;10.096;2022-08-01T04:05:34;16.65;;;9.25;;
73550;SDS011;61816;53.582;10.096;2022-08-01T04:08:00;13.20;;;9.15;;
73550;SDS011;61816;53.582;10.096;2022-08-01T04:10:27;17.85;;;8.38;;
73550;SDS011;61816;53.582;10.096;2022-08-01T04:12:53;18.90;;;9.02;;
73550;SDS011;61816;53.582;10.096;2022-08-01T04:15:19;13.88;;;9.05;;
73550;SDS011;61816;53.582;10.096;2022-08-01T04:17:45;13.38;;;8.43;;
73550;SDS011;61816;53.582;10.096;2022-08-01T04:20:11;17.38;;;9.35;;
73550;SDS011;61816;53.582;10.096;2022-08-01T04:22:36;14.35;;;8.20;;
73550;SDS011;61816;53.582;10.096;2022-08-01T04:25:03;15.80;;;8.55;;
73550;SDS011;61816;53.582;10.096;2022-08-01T04:27:35;22.02;;;8.80;;
73550;SDS011;61816;53.582;10.096;2022-08-01T04:30:02;11.65;;;8.30;;
73550;SDS011;61816;53.582;10.096;2022-08-01T04:32:29;12.50;;;7.88;;
73550;SDS011;61816;53.582;10.096;2022-08-01T04:34:59;13.32;;;7.95;;
73550;SDS011;61816;53.582;10.096;2022-08-01T04:37:27;14.38;;;8.25;;
73550;SDS011;61816;53.582;10.096;2022-08-01T04:39:54;9.60;;;7.50;;
73550;SDS011;61816;53.582;10.096;2022-08-01T04:42:21;18.52;;;8.68;;
73550;SDS011;61816;53.582;10.096;2022-08-01T04:44:47;12.65;;;8.85;;
73550;SDS011;61816;53.582;10.096;2022-08-01T04:47:12;20.25;;;8.98;;
73550;SDS011;61816;53.582;10.096;2022-08-01T04:49:38;15.48;;;9.30;;
73550;SDS011;61816;53.582;10.096;2022-08-01T04:52:05;17.38;;;9.48;;
73550;SDS011;61816;53.582;10.096;2022-08-01T04:54:32;16.15;;;10.43;;
73550;SDS011;61816;53.582;10.096;2022-08-01T04:56:59;16.88;;;9.57;;
73550;SDS011;61816;53.582;10.096;2022-08-01T04:59:26;14.63;;;8.45;;
73550;SDS011;61816;53.582;10.096;2022-08-01T05:02:04;16.30;;;8.15;;
73550;SDS011;61816;53.582;10.096;2022-08-01T05:04:30;19.40;;;8.63;;
73550;SDS011;61816;53.582;10.096;2022-08-01T05:06:56;11.48;;;7.70;;
73550;SDS011;61816;53.582;10.096;2022-08-01T05:09:21;12.60;;;8.13;;
73550;SDS011;61816;53.582;10.096;2022-08-01T05:11:47;11.07;;;7.00;;
73550;SDS011;61816;53.582;10.096;2022-08-01T05:14:12;25.35;;;9.00;;
73550;SDS011;61816;53.582;10.096;2022-08-01T05:16:38;14.15;;;9.30;;
73550;SDS011;61816;53.582;10.096;2022-08-01T05:19:03;14.73;;;9.00;;
73550;SDS011;61816;53.582;10.096;2022-08-01T05:21:28;9.15;;;4.75;;
73550;SDS011;61816;53.582;10.096;2022-08-01T05:23:54;12.55;;;5.55;;
73550;SDS011;61816;53.582;10.096;2022-08-01T05:26:19;12.40;;;5.07;;
73550;SDS011;61816;53.582;10.096;2022-08-01T05:28:44;9.73;;;4.82;;
73550;SDS011;61816;53.582;10.096;2022-08-01T05:31:10;3.20;;;2.85;;
73550;SDS011;61816;53.582;10.096;2022-08-01T05:33:35;5.30;;;2.78;;
73550;SDS011;61816;53.582;10.096;2022-08-01T05:36:01;7.43;;;3.63;;
73550;SDS011;61816;53.582;10.096;2022-08-01T05:38:26;10.02;;;3.75;;
73550;SDS011;61816;53.582;10.096;2022-08-01T05:40:51;6.75;;;3.58;;
73550;SDS011;61816;53.582;10.096;2022-08-01T05:43:17;5.05;;;3.33;;
73550;SDS011;61816;53.582;10.096;2022-08-01T05:45:42;9.13;;;3.58;;
73550;SDS011;61816;53.582;10.096;2022-08-01T05:48:09;9.80;;;3.67;;
73550;SDS011;61816;53.582;10.096;2022-08-01T05:50:34;7.57;;;3.72;;
73550;SDS011;61816;53.582;10.096;2022-08-01T05:53:00;7.63;;;3.35;;
73550;SDS011;61816;53.582;10.096;2022-08-01T05:55:25;7.57;;;3.70;;
73550;SDS011;61816;53.582;10.096;2022-08-01T05:57:51;6.90;;;3.80;;
73550;SDS011;61816;53.582;10.096;2022-08-01T06:00:16;10.30;;;3.95;;
73550;SDS011;61816;53.582;10.096;2022-08-01T06:02:42;8.05;;;3.97;;
73550;SDS011;61816;53.582;10.096;2022-08-01T06:05:08;9.68;;;3.50;;
73550;SDS011;61816;53.582;10.096;2022-08-01T06:07:34;7.95;;;4.28;;
73550;SDS011;61816;53.582;10.096;2022-08-01T06:09:59;10.48;;;3.40;;
73550;SDS011;61816;53.582;10.096;2022-08-01T06:12:24;9.15;;;3.92;;
73550;SDS011;61816;53.582;10.096;2022-08-01T06:14:50;11.02;;;3.67;;
73550;SDS011;61816;53.582;10.096;2022-08-01T06:17:15;17.52;;;5.05;;
73550;SDS011;61816;53.582;10.096;2022-08-01T06:19:40;12.75;;;3.60;;
73550;SDS011;61816;53.582;10.096;2022-08-01T06:22:06;13.90;;;3.47;;
73550;SDS011;61816;53.582;10.096;2022-08-01T06:24:31;10.55;;;3.55;;
73550;SDS011;61816;53.582;10.096;2022-08-01T06:26:56;15.73;;;3.88;;
73550;SDS011;61816;53.582;10.096;2022-08-01T06:29:22;11.35;;;3.53;;
73550;SDS011;61816;53.582;10.096;2022-08-01T06:31:47;15.65;;;4.72;;
73550;SDS011;61816;53.582;10.096;2022-08-01T06:34:12;13.20;;;3.85;;
73550;SDS011;61816;53.582;10.096;2022-08-01T06:36:38;16.17;;;4.10;;
73550;SDS011;61816;53.582;10.096;2022-08-01T06:39:03;15.85;;;3.92;;
73550;SDS011;61816;53.582;10.096;2022-08-01T06:41:28;23.02;;;5.82;;
73550;SDS011;61816;53.582;10.096;2022-08-01T06:43:54;11.20;;;3.58;;
73550;SDS011;61816;53.582;10.096;2022-08-01T06:46:19;20.48;;;4.07;;
73550;SDS011;61816;53.582;10.096;2022-08-01T06:48:44;15.50;;;5.07;;
73550;SDS011;61816;53.582;10.096;2022-08-01T06:51:10;18.05;;;5.85;;
73550;SDS011;61816;53.582;10.096;2022-08-01T06:53:39;21.75;;;7.10;;
73550;SDS011;61816;53.582;10.096;2022-08-01T06:56:04;27.38;;;6.45;;
73550;SDS011;61816;53.582;10.096;2022-08-01T06:58:31;24.33;;;5.72;;
73550;SDS011;61816;53.582;10.096;2022-08-01T07:00:56;14.32;;;6.07;;
73550;SDS011;61816;53.582;10.096;2022-08-01T07:03:22;25.65;;;5.18;;
73550;SDS011;61816;53.582;10.096;2022-08-01T07:05:47;17.25;;;6.07;;
73550;SDS011;61816;53.582;10.096;2022-08-01T07:08:12;17.40;;;6.63;;
73550;SDS011;61816;53.582;10.096;2022-08-01T07:10:38;16.35;;;6.22;;
73550;SDS011;61816;53.582;10.096;2022-08-01T07:13:03;22.15;;;6.38;;
73550;SDS011;61816;53.582;10.096;2022-08-01T07:15:28;25.75;;;7.80;;
73550;SDS011;61816;53.582;10.096;2022-08-01T07:17:54;19.15;;;6.53;;
73550;SDS011;61816;53.582;10.096;2022-08-01T07:20:19;30.85;;;8.07;;
73550;SDS011;61816;53.582;10.096;2022-08-01T07:22:45;17.38;;;7.13;;
73550;SDS011;61816;53.582;10.096;2022-08-01T07:25:11;26.48;;;8.00;;
73550;SDS011;61816;53.582;10.096;2022-08-01T07:27:36;24.98;;;7.05;;
73550;SDS011;61816;53.582;10.096;2022-08-01T07:30:03;21.83;;;6.93;;
73550;SDS011;61816;53.582;10.096;2022-08-01T07:32:29;28.55;;;7.78;;
73550;SDS011;61816;53.582;10.096;2022-08-01T07:34:55;26.05;;;7.57;;
73550;SDS011;61816;53.582;10.096;2022-08-01T07:37:21;19.40;;;6.30;;
73550;SDS011;61816;53.582;10.096;2022-08-01T07:39:46;26.58;;;6.72;;
73550;SDS011;61816;53.582;10.096;2022-08-01T07:42:11;21.30;;;6.00;;
73550;SDS011;61816;53.582;10.096;2022-08-01T07:44:37;24.80;;;6.20;;
73550;SDS011;61816;53.582;10.096;2022-08-01T07:47:03;26.05;;;6.18;;
73550;SDS011;61816;53.582;10.096;2022-08-01T07:49:29;24.77;;;5.63;;
73550;SDS011;61816;53.582;10.096;2022-08-01T07:51:55;25.35;;;6.50;;
73550;SDS011;61816;53.582;10.096;2022-08-01T07:54:20;26.63;;;6.22;;
73550;SDS011;61816;53.582;10.096;2022-08-01T07:56:48;19.40;;;6.30;;
73550;SDS011;61816;53.582;10.096;2022-08-01T07:59:14;20.40;;;6.00;;
73550;SDS011;61816;53.582;10.096;2022-08-01T08:01:40;20.75;;;5.57;;
73550;SDS011;61816;53.582;10.096;2022-08-01T08:04:06;25.77;;;6.68;;
73550;SDS011;61816;53.582;10.096;2022-08-01T08:06:32;30.75;;;7.55;;
73550;SDS011;61816;53.582;10.096;2022-08-01T08:08:57;33.97;;;7.40;;
73550;SDS011;61816;53.582;10.096;2022-08-01T08:11:24;24.50;;;6.00;;
73550;SDS011;61816;53.582;10.096;2022-08-01T08:13:49;29.35;;;5.63;;
73550;SDS011;61816;53.582;10.096;2022-08-01T08:16:15;21.25;;;5.32;;
73550;SDS011;61816;53.582;10.096;2022-08-01T08:18:40;19.95;;;5.15;;
73550;SDS011;61816;53.582;10.096;2022-08-01T08:21:05;24.33;;;5.40;;
73550;SDS011;61816;53.582;10.096;2022-08-01T08:23:31;23.05;;;5.32;;
73550;SDS011;61816;53.582;10.096;2022-08-01T08:26:15;24.05;;;4.78;;
73550;SDS011;61816;53.582;10.096;2022-08-01T08:28:40;16.40;;;4.07;;
73550;SDS011;61816;53.582;10.096;2022-08-01T08:31:05;20.17;;;4.55;;
73550;SDS011;61816;53.582;10.096;2022-08-01T08:33:31;25.90;;;5.13;;
73550;SDS011;61816;53.582;10.096;2022-08-01T08:35:57;22.45;;;4.28;;
73550;SDS011;61816;53.582;10.096;2022-08-01T08:38:23;23.35;;;4.32;;
73550;SDS011;61816;53.582;10.096;2022-08-01T08:40:51;21.75;;;4.97;;
73550;SDS011;61816;53.582;10.096;2022-08-01T08:43:17;30.20;;;5.70;;
73550;SDS011;61816;53.582;10.096;2022-08-01T08:45:43;14.07;;;3.55;;
73550;SDS011;61816;53.582;10.096;2022-08-01T08:48:10;18.02;;;3.90;;
73550;SDS011;61816;53.582;10.096;2022-08-01T08:50:37;22.95;;;3.42;;
73550;SDS011;61816;53.582;10.096;2022-08-01T08:53:03;14.50;;;4.25;;
73550;SDS011;61816;53.582;10.096;2022-08-01T08:55:29;9.85;;;3.50;;
73550;SDS011;61816;53.582;10.096;2022-08-01T08:57:54;17.10;;;3.63;;
73550;SDS011;61816;53.582;10.096;2022-08-01T09:00:21;11.32;;;3.67;;
73550;SDS011;61816;53.582;10.096;2022-08-01T09:02:47;19.30;;;4.30;;
73550;SDS011;61816;53.582;10.096;2022-08-01T09:05:14;16.63;;;4.72;;
73550;SDS011;61816;53.582;10.096;2022-08-01T09:07:41;23.20;;;4.18;;
73550;SDS011;61816;53.582;10.096;2022-08-01T09:10:07;14.23;;;3.08;;
73550;SDS011;61816;53.582;10.096;2022-08-01T09:12:34;15.75;;;3.03;;
73550;SDS011;61816;53.582;10.096;2022-08-01T09:14:59;11.13;;;3.58;;
73550;SDS011;61816;53.582;10.096;2022-08-01T09:17:24;22.67;;;3.95;;
73550;SDS011;61816;53.582;10.096;2022-08-01T09:19:51;16.38;;;3.60;;
73550;SDS011;61816;53.582;10.096;2022-08-01T09:22:19;13.98;;;3.30;;
73550;SDS011;61816;53.582;10.096;2022-08-01T09:25:08;22.27;;;3.45;;
73550;SDS011;61816;53.582;10.096;2022-08-01T09:27:36;15.77;;;3.10;;
73550;SDS011;61816;53.582;10.096;2022-08-01T09:35:29;15.73;;;3.45;;
73550;SDS011;61816;53.582;10.096;2022-08-01T09:38:16;14.68;;;3.20;;
73550;SDS011;61816;53.582;10.096;2022-08-01T09:43:12;22.35;;;3.65;;
73550;SDS011;61816;53.582;10.096;2022-08-01T09:45:37;18.35;;;3.65;;
73550;SDS011;61816;53.582;10.096;2022-08-01T09:48:06;14.18;;;3.67;;
73550;SDS011;61816;53.582;10.096;2022-08-01T09:50:40;19.00;;;4.20;;
73550;SDS011;61816;53.582;10.096;2022-08-01T09:53:07;20.10;;;4.28;;
73550;SDS011;61816;53.582;10.096;2022-08-01T09:55:33;21.00;;;4.20;;
73550;SDS011;61816;53.582;10.096;2022-08-01T09:57:59;21.25;;;3.55;;
73550;SDS011;61816;53.582;10.096;2022-08-01T10:00:26;12.15;;;3.28;;
73550;SDS011;61816;53.582;10.096;2022-08-01T10:02:51;17.50;;;3.70;;
73550;SDS011;61816;53.582;10.096;2022-08-01T10:05:17;13.30;;;3.17;;
73550;SDS011;61816;53.582;10.096;2022-08-01T10:07:56;17.10;;;3.15;;
73550;SDS011;61816;53.582;10.096;2022-08-01T10:10:26;16.27;;;3.67;;
73550;SDS011;61816;53.582;10.096;2022-08-01T10:12:52;18.75;;;3.00;;
73550;SDS011;61816;53.582;10.096;2022-08-01T10:15:18;11.77;;;3.08;;
73550;SDS011;61816;53.582;10.096;2022-08-01T10:18:06;15.95;;;3.88;;
73550;SDS011;61816;53.582;10.096;2022-08-01T10:20:32;17.02;;;3.10;;
73550;SDS011;61816;53.582;10.096;2022-08-01T10:22:59;17.38;;;3.17;;
73550;SDS011;61816;53.582;10.096;2022-08-01T10:25:28;19.70;;;3.15;;
73550;SDS011;61816;53.582;10.096;2022-08-01T10:27:58;24.80;;;3.80;;
73550;SDS011;61816;53.582;10.096;2022-08-01T10:30:26;13.75;;;2.95;;
73550;SDS011;61816;53.582;10.096;2022-08-01T10:32:53;14.05;;;3.63;;
73550;SDS011;61816;53.582;10.096;2022-08-01T10:35:20;17.15;;;3.28;;
73550;SDS011;61816;53.582;10.096;2022-08-01T10:37:46;18.38;;;2.97;;
73550;SDS011;61816;53.582;10.096;2022-08-01T10:40:12;21.98;;;4.20;;
73550;SDS011;61816;53.582;10.096;2022-08-01T10:42:39;15.90;;;3.88;;
73550;SDS011;61816;53.582;10.096;2022-08-01T10:45:08;22.98;;;3.55;;
73550;SDS011;61816;53.582;10.096;2022-08-01T10:48:20;16.90;;;3.47;;
73550;SDS011;61816;53.582;10.096;2022-08-01T10:53:16;21.95;;;3.53;;
73550;SDS011;61816;53.582;10.096;2022-08-01T10:58:18;18.67;;;3.47;;
73550;SDS011;61816;53.582;10.096;2022-08-01T11:00:45;19.60;;;3.15;;
73550;SDS011;61816;53.582;10.096;2022-08-01T11:03:11;15.45;;;3.58;;
73550;SDS011;61816;53.582;10.096;2022-08-01T11:05:36;21.20;;;3.20;;
73550;SDS011;61816;53.582;10.096;2022-08-01T11:10:39;15.20;;;3.13;;
73550;SDS011;61816;53.582;10.096;2022-08-01T11:13:06;16.80;;;3.00;;
73550;SDS011;61816;53.582;10.096;2022-08-01T11:15:36;15.10;;;3.30;;
73550;SDS011;61816;53.582;10.096;2022-08-01T11:20:56;11.80;;;2.78;;
73550;SDS011;61816;53.582;10.096;2022-08-01T11:30:46;27.67;;;3.35;;
73550;SDS011;61816;53.582;10.096;2022-08-01T11:33:14;17.00;;;3.60;;
73550;SDS011;61816;53.582;10.096;2022-08-01T11:38:43;12.50;;;3.05;;
73550;SDS011;61816;53.582;10.096;2022-08-01T11:41:28;18.35;;;3.33;;
73550;SDS011;61816;53.582;10.096;2022-08-01T11:44:03;12.02;;;2.63;;
73550;SDS011;61816;53.582;10.096;2022-08-01T11:46:44;16.98;;;3.05;;
73550;SDS011;61816;53.582;10.096;2022-08-01T11:52:13;9.55;;;3.00;;
73550;SDS011;61816;53.582;10.096;2022-08-01T11:54:49;11.70;;;2.60;;
73550;SDS011;61816;53.582;10.096;2022-08-01T11:57:20;11.73;;;2.78;;
73550;SDS011;61816;53.582;10.096;2022-08-01T11:59:46;35.00;;;3.13;;
73550;SDS011;61816;53.582;10.096;2022-08-01T12:02:17;16.05;;;2.95;;
73550;SDS011;61816;53.582;10.096;2022-08-01T12:07:33;12.40;;;2.85;;
73550;SDS011;61816;53.582;10.096;2022-08-01T12:10:07;12.32;;;3.15;;
73550;SDS011;61816;53.582;10.096;2022-08-01T12:12:33;13.10;;;2.42;;
73550;SDS011;61816;53.582;10.096;2022-08-01T12:15:00;11.77;;;3.08;;
73550;SDS011;61816;53.582;10.096;2022-08-01T12:17:32;10.88;;;2.30;;
73550;SDS011;61816;53.582;10.096;2022-08-01T12:20:11;17.65;;;2.28;;
73550;SDS011;61816;53.582;10.096;2022-08-01T12:22:39;11.50;;;3.35;;
73550;SDS011;61816;53.582;10.096;2022-08-01T12:25:13;14.82;;;2.20;;
73550;SDS011;61816;53.582;10.096;2022-08-01T12:27:43;15.85;;;2.45;;
73550;SDS011;61816;53.582;10.096;2022-08-01T12:30:14;18.05;;;2.53;;
73550;SDS011;61816;53.582;10.096;2022-08-01T12:32:42;11.30;;;2.97;;
73550;SDS011;61816;53.582;10.096;2022-08-01T12:35:09;9.82;;;2.30;;
73550;SDS011;61816;53.582;10.096;2022-08-01T12:40:13;8.82;;;2.45;;
73550;SDS011;61816;53.582;10.096;2022-08-01T12:42:51;18.40;;;3.13;;
73550;SDS011;61816;53.582;10.096;2022-08-01T12:45:19;12.63;;;2.67;;
73550;SDS011;61816;53.582;10.096;2022-08-01T12:47:48;9.35;;;2.50;;
73550;SDS011;61816;53.582;10.096;2022-08-01T12:50:16;12.63;;;3.10;;
73550;SDS011;61816;53.582;10.096;2022-08-01T12:52:47;10.48;;;1.85;;
73550;SDS011;61816;53.582;10.096;2022-08-01T12:55:21;7.72;;;2.40;;
73550;SDS011;61816;53.582;10.096;2022-08-01T12:57:59;15.20;;;3.28;;
73550;SDS011;61816;53.582;10.096;2022-08-01T13:00:30;13.00;;;2.60;;
73550;SDS011;61816;53.582;10.096;2022-08-01T13:08:17;15.82;;;3.33;;
73550;SDS011;61816;53.582;10.096;2022-08-01T13:10:44;14.88;;;2.60;;
73550;SDS011;61816;53.582;10.096;2022-08-01T13:13:10;13.02;;;2.88;;
73550;SDS011;61816;53.582;10.096;2022-08-01T13:15:37;12.82;;;2.05;;
73550;SDS011;61816;53.582;10.096;2022-08-01T13:24:01;19.00;;;3.08;;
73550;SDS011;61816;53.582;10.096;2022-08-01T13:29:07;13.90;;;2.38;;
73550;SDS011;61816;53.582;10.096;2022-08-01T13:31:34;9.27;;;2.50;;
73550;SDS011;61816;53.582;10.096;2022-08-01T13:34:01;11.68;;;2.80;;
73550;SDS011;61816;53.582;10.096;2022-08-01T13:36:26;13.75;;;3.33;;
73550;SDS011;61816;53.582;10.096;2022-08-01T13:38:53;13.93;;;2.63;;
73550;SDS011;61816;53.582;10.096;2022-08-01T13:41:38;11.77;;;2.50;;
73550;SDS011;61816;53.582;10.096;2022-08-01T13:44:03;16.75;;;2.42;;
73550;SDS011;61816;53.582;10.096;2022-08-01T13:46:28;18.67;;;3.00;;
73550;SDS011;61816;53.582;10.096;2022-08-01T13:48:54;14.73;;;2.60;;
73550;SDS011;61816;53.582;10.096;2022-08-01T13:51:19;12.07;;;2.30;;
73550;SDS011;61816;53.582;10.096;2022-08-01T13:53:45;20.42;;;3.33;;
73550;SDS011;61816;53.582;10.096;2022-08-01T13:56:10;10.25;;;1.95;;
73550;SDS011;61816;53.582;10.096;2022-08-01T13:58:36;14.40;;;2.60;;
73550;SDS011;61816;53.582;10.096;2022-08-01T14:01:02;7.00;;;2.03;;
73550;SDS011;61816;53.582;10.096;2022-08-01T14:03:27;14.50;;;2.67;;
73550;SDS011;61816;53.582;10.096;2022-08-01T14:05:53;12.07;;;2.35;;
73550;SDS011;61816;53.582;10.096;2022-08-01T14:08:18;11.57;;;2.17;;
73550;SDS011;61816;53.582;10.096;2022-08-01T14:10:44;8.70;;;1.92;;
73550;SDS011;61816;53.582;10.096;2022-08-01T14:13:09;11.45;;;2.15;;
73550;SDS011;61816;53.582;10.096;2022-08-01T14:15:34;15.70;;;2.45;;
73550;SDS011;61816;53.582;10.096;2022-08-01T14:18:00;11.63;;;1.92;;
73550;SDS011;61816;53.582;10.096;2022-08-01T14:20:26;10.50;;;2.00;;
73550;SDS011;61816;53.582;10.096;2022-08-01T14:22:51;13.25;;;2.42;;
73550;SDS011;61816;53.582;10.096;2022-08-01T14:25:17;16.40;;;2.55;;
73550;SDS011;61816;53.582;10.096;2022-08-01T14:27:43;6.97;;;1.85;;
73550;SDS011;61816;53.582;10.096;2022-08-01T14:30:09;9.55;;;1.83;;
73550;SDS011;61816;53.582;10.096;2022-08-01T14:32:36;10.75;;;2.42;;
73550;SDS011;61816;53.582;10.096;2022-08-01T14:35:03;9.13;;;1.92;;
73550;SDS011;61816;53.582;10.096;2022-08-01T14:37:30;16.20;;;2.58;;
73550;SDS011;61816;53.582;10.096;2022-08-01T14:39:56;9.15;;;2.00;;
73550;SDS011;61816;53.582;10.096;2022-08-01T14:42:29;10.95;;;2.05;;
73550;SDS011;61816;53.582;10.096;2022-08-01T14:44:55;14.32;;;2.10;;
73550;SDS011;61816;53.582;10.096;2022-08-01T14:47:20;6.30;;;2.03;;
73550;SDS011;61816;53.582;10.096;2022-08-01T14:49:46;12.25;;;2.15;;
73550;SDS011;61816;53.582;10.096;2022-08-01T14:52:11;9.48;;;1.88;;
73550;SDS011;61816;53.582;10.096;2022-08-01T14:54:37;9.68;;;2.33;;
73550;SDS011;61816;53.582;10.096;2022-08-01T14:57:02;12.65;;;2.83;;
73550;SDS011;61816;53.582;10.096;2022-08-01T14:59:28;8.43;;;2.70;;
73550;SDS011;61816;53.582;10.096;2022-08-01T15:01:53;13.13;;;2.40;;
73550;SDS011;61816;53.582;10.096;2022-08-01T15:04:18;18.73;;;3.17;;
73550;SDS011;61816;53.582;10.096;2022-08-01T15:06:44;11.85;;;2.28;;
73550;SDS011;61816;53.582;10.096;2022-08-01T15:09:09;13.63;;;2.75;;
73550;SDS011;61816;53.582;10.096;2022-08-01T15:11:35;12.50;;;2.75;;
73550;SDS011;61816;53.582;10.096;2022-08-01T15:14:01;9.55;;;2.22;;
73550;SDS011;61816;53.582;10.096;2022-08-01T15:16:45;12.15;;;2.10;;
73550;SDS011;61816;53.582;10.096;2022-08-01T15:19:10;17.25;;;2.35;;
73550;SDS011;61816;53.582;10.096;2022-08-01T15:21:36;13.05;;;2.50;;
73550;SDS011;61816;53.582;10.096;2022-08-01T15:24:01;14.43;;;2.67;;
73550;SDS011;61816;53.582;10.096;2022-08-01T15:26:26;11.80;;;2.45;;